Buoy 22628

sailwx.info

Track history (hours):
 
Tides and Currents Weather Stations Pressure Air Temp Water Temp Dewpoint Dewpoint Depression Visibility Wind Speed Wind Dir Waves Ship Positions

Drifting buoy 22628

Last reported at 2017-Sep-23 15:00 UTC. Time now 2017-Sep-23 16:28 UTC.
Position N 33°47' W 139°23'.

Barometer 1023.8 mb
Water temperature 22.9 ° C

Date/timePositionNaut miles runAvg speedWind from/ knotsBaromVisibWave heightAir tempDewpointWater temp
2017-Sep-23 15:00N 33°47' W 139°23'0 0.0 1023.8 22.9
2017-Sep-23 14:00N 33°47' W 139°23'1 0.6 1023.5 22.9
2017-Sep-23 13:00N 33°47' W 139°23'3 3.2 1023.2 22.9
2017-Sep-23 12:00N 33°44' W 139°22'0 0.0 1023.1 22.8
2017-Sep-23 11:00N 33°44' W 139°22'0 0.0 1023.4 22.8
2017-Sep-23 07:00N 33°44' W 139°22'1 0.6 1024.5 22.8
2017-Sep-23 06:00N 33°44' W 139°22'0 0.5 1024.4 22.8
2017-Sep-23 05:00N 33°44' W 139°21'0 0.0 1023.9 22.8
2017-Sep-23 04:00N 33°44' W 139°21'1 1.3 1023.7 22.8
2017-Sep-23 03:00N 33°43' W 139°20'0 0.5 1023.6 22.8
2017-Sep-23 02:00N 33°43' W 139°20'0 0.5 1023.7 22.8
2017-Sep-23 01:00N 33°43' W 139°20'1 0.8 1023.7 22.8
2017-Sep-23 00:00N 33°42' W 139°20'0 0.0 1024.1 22.8
2017-Sep-22 23:00N 33°42' W 139°20'2 0.6 1024.6 22.8
2017-Sep-22 20:00N 33°41' W 139°18'1 1.2 1026.0 22.7
2017-Sep-22 19:00N 33°40' W 139°17'0 0.0 1026.1 22.8
2017-Sep-22 18:00N 33°40' W 139°17'1 0.6 1025.9 22.8
2017-Sep-22 17:00N 33°40' W 139°17'1 1.0 1025.4 22.8
2017-Sep-22 16:00N 33°40' W 139°16'0 0.0 1025.3 22.8
2017-Sep-22 15:00N 33°40' W 139°16'1 1.0 1025.1 22.8
2017-Sep-22 14:00N 33°40' W 139°14'0 0.5 1025.0 22.8
2017-Sep-22 13:00N 33°40' W 139°14'1 0.6 1024.8 22.7
2017-Sep-22 12:00N 33°40' W 139°14'1 1.0 1024.9 22.7
2017-Sep-22 11:00N 33°40' W 139°13'0 0.1 1025.4 22.7
2017-Sep-22 07:00N 33°40' W 139°12'0 0.0 1026.0 22.7
2017-Sep-22 06:00N 33°40' W 139°12'1 0.6 1026.2 22.8
2017-Sep-22 05:00N 33°40' W 139°12'1 0.8 1025.9 22.8
2017-Sep-22 04:00N 33°39' W 139°11'1 0.6 1025.5 22.8
2017-Sep-22 03:00N 33°38' W 139°11'0 0.5 1025.1 22.8
2017-Sep-22 02:00N 33°38' W 139°11'1 0.6 1025.0 22.8
2017-Sep-22 01:00N 33°38' W 139°11'1 1.2 1025.0 22.8
2017-Sep-22 00:00N 33°37' W 139°10'0 0.0 1025.3 22.8
2017-Sep-21 23:00N 33°37' W 139°10'3 1.0 1025.5 22.8
2017-Sep-21 20:00N 33°37' W 139°06'1 1.0 1025.9 22.8
2017-Sep-21 19:00N 33°37' W 139°05'1 1.0 1025.9 22.8
2017-Sep-21 18:00N 33°37' W 139°04'0 0.5 1025.6 22.8
2017-Sep-21 17:00N 33°37' W 139°03'0 0.0 1025.1 22.8
2017-Sep-21 16:00N 33°37' W 139°03'1 1.0 1024.6 22.8
2017-Sep-21 15:00N 33°37' W 139°02'0 0.0 1023.9 22.8
2017-Sep-21 14:00N 33°37' W 139°02'1 0.6 1023.7 22.8
2017-Sep-21 13:00N 33°37' W 139°02'0 0.0 1023.4 22.8
2017-Sep-21 12:00N 33°37' W 139°02'1 1.0 1023.5 22.8
2017-Sep-21 11:00N 33°37' W 139°01'0 0.1 1024.1 22.8
2017-Sep-21 07:00N 33°37' W 139°00'0 0.0 1024.8 22.8
2017-Sep-21 06:00N 33°37' W 139°00'0 0.0 1024.7 22.8
2017-Sep-21 05:00N 33°37' W 139°00'0 0.0 1024.4 22.8
2017-Sep-21 04:00N 33°37' W 139°00'1 0.6 1023.9 22.9
2017-Sep-21 03:00N 33°38' W 139°00'0 0.5 1023.6 22.9
2017-Sep-21 02:00N 33°38' W 138°59'0 0.0 1023.4 22.9
2017-Sep-21 01:00N 33°38' W 138°59'1 0.6
2017-Sep-21 00:00N 33°38' W 138°59'1 0.6 1023.7 22.9
2017-Sep-20 23:00N 33°38' W 138°59'1 0.4 1024.2 22.9
2017-Sep-20 20:00N 33°38' W 138°58'1 1.0 1025.6 22.8
2017-Sep-20 19:00N 33°38' W 138°57'0 0.5 1026.1 22.8
2017-Sep-20 18:00N 33°38' W 138°56'0 0.0 1025.8 22.8
2017-Sep-20 17:00N 33°38' W 138°56'0 0.0 1025.7 22.8
2017-Sep-20 16:00N 33°38' W 138°56'1 1.2 1025.6 22.8
2017-Sep-20 15:00N 33°40' W 138°56'0 0.5 1025.5 22.8
2017-Sep-20 14:00N 33°40' W 138°56'0 0.0 1025.3 22.8
2017-Sep-20 13:00N 33°40' W 138°56'0 0.0 1025.5 22.8
2017-Sep-20 12:00N 33°40' W 138°56'1 0.8 1025.7 22.8
2017-Sep-20 11:00N 33°40' W 138°55'1 0.1 1026.0 22.8
2017-Sep-20 07:00N 33°41' W 138°55'0 0.0 1027.0 22.9
2017-Sep-20 06:00N 33°41' W 138°55'0 0.0 1027.0 22.9
2017-Sep-20 05:00N 33°41' W 138°55'1 0.6 1026.8 22.9
2017-Sep-20 04:00N 33°40' W 138°55'0 0.5 1026.1 22.8
2017-Sep-20 03:00N 33°40' W 138°55'0 0.5 1025.8 22.8
2017-Sep-20 02:00N 33°40' W 138°54'0 0.0 1025.9 22.9
2017-Sep-20 01:00N 33°40' W 138°54'1 0.6 1025.9 22.8
2017-Sep-20 00:00N 33°40' W 138°54'0 0.0 1025.9 22.8
2017-Sep-19 23:00N 33°40' W 138°54'3 1.3 1026.2 22.8
2017-Sep-19 21:00N 33°39' W 138°51'1 0.8 1026.9 22.8
2017-Sep-19 20:00N 33°38' W 138°50'0 0.0 1027.2 22.7
2017-Sep-19 19:00N 33°38' W 138°50'2 1.0 1027.2 22.6
2017-Sep-19 17:00N 33°38' W 138°48'1 0.8 1027.0 22.6
2017-Sep-19 16:00N 33°39' W 138°47'0 0.0 1026.8 22.6
2017-Sep-19 15:00N 33°39' W 138°47'1 1.2 1026.5 22.6
2017-Sep-19 14:00N 33°40' W 138°46'1 0.6 1026.1 22.6
2017-Sep-19 13:00N 33°40' W 138°46'0 0.0 1025.9 22.6
2017-Sep-19 12:00N 33°40' W 138°46'0 0.5 1025.8 22.6
2017-Sep-19 11:00N 33°40' W 138°46'1 0.2 1026.0 22.7
2017-Sep-19 07:00N 33°40' W 138°45'1 1.0 1026.2 22.7
2017-Sep-19 06:00N 33°40' W 138°44'0 0.0 1026.0 22.7
2017-Sep-19 05:00N 33°40' W 138°44'0 0.5 1025.5 22.7
2017-Sep-19 04:00N 33°40' W 138°43'1 1.2 1025.0 22.7
2017-Sep-19 03:00N 33°39' W 138°42'0 0.5 1024.7 22.7
2017-Sep-19 02:00N 33°39' W 138°41'3 3.0 1024.5 22.7
2017-Sep-19 01:00N 33°39' W 138°38'1 1.3 1024.4 22.7
2017-Sep-19 00:00N 33°38' W 138°37'0 0.0 1024.5 22.7
2017-Sep-18 23:00N 33°38' W 138°37'0 0.0 1024.4 22.7
2017-Sep-18 22:00N 33°38' W 138°37'2 1.2 1024.4 22.8
2017-Sep-18 20:00N 33°38' W 138°34'2 0.8 1024.5 22.7
2017-Sep-18 18:00N 33°38' W 138°32'1 1.2 1024.2 22.8
2017-Sep-18 17:00N 33°39' W 138°31'2 1.6 1023.7 22.8
2017-Sep-18 16:00N 33°40' W 138°30'0 0.0 1023.3 22.9
2017-Sep-18 15:00N 33°40' W 138°30'1 0.6 1022.8 22.9
2017-Sep-18 14:00N 33°40' W 138°30'1 0.8 1022.4 22.8
2017-Sep-18 13:00N 33°40' W 138°31'0 0.5 1022.2 22.8
2017-Sep-18 12:00N 33°40' W 138°31'1 0.2 1022.3 22.8
2017-Sep-18 07:00N 33°40' W 138°32'1 1.2 1023.6 23.2
2017-Sep-18 06:00N 33°39' W 138°32'0 0.0 1023.5 23.4
2017-Sep-18 05:00N 33°39' W 138°32'1 1.2 1023.3 23.6
2017-Sep-18 04:00N 33°38' W 138°32'0 0.0 1022.7 23.6
2017-Sep-18 03:00N 33°38' W 138°32'1 0.8 1022.6 24.1
2017-Sep-18 02:00N 33°37' W 138°32'1 1.0 1022.8 24.5
2017-Sep-18 01:00N 33°37' W 138°31'0 0.0 1022.9 25.0
2017-Sep-18 00:00N 33°37' W 138°31'1 0.4 1023.0 24.5
2017-Sep-17 22:00N 33°37' W 138°30'1 0.5 1023.7 24.3
2017-Sep-17 20:00N 33°37' W 138°29'0 0.5 1024.6 24.0
2017-Sep-17 19:00N 33°37' W 138°28'0 0.0 1024.6 22.9
2017-Sep-17 18:00N 33°37' W 138°28'0 0.0 1024.4 22.7
2017-Sep-17 17:00N 33°37' W 138°28'1 1.0 1024.1 22.6
2017-Sep-17 16:00N 33°37' W 138°27'0 0.0 1023.9 22.6
2017-Sep-17 15:00N 33°37' W 138°27'1 0.6 1023.7 22.6
2017-Sep-17 14:00N 33°36' W 138°27'1 1.2 1023.3 22.6
2017-Sep-17 13:00N 33°37' W 138°27'3 3.2 1023.0 22.6
2017-Sep-17 12:00N 33°34' W 138°26'0 0.1 1022.7 22.6
2017-Sep-17 06:00N 33°34' W 138°25'2 1.6 1023.3 22.8
2017-Sep-17 05:00N 33°34' W 138°23'0 0.0 1023.1 22.8
2017-Sep-17 04:00N 33°34' W 138°23'2 1.6 1022.5 22.9
2017-Sep-17 03:00N 33°33' W 138°22'1 1.0 1022.4 22.9
2017-Sep-17 02:00N 33°33' W 138°20'0 0.0 1022.4 23.0
2017-Sep-17 01:00N 33°33' W 138°20'0 0.0 1022.5 23.0
2017-Sep-17 00:00N 33°33' W 138°20'1 0.6 1022.5 23.0
2017-Sep-16 22:00N 33°32' W 138°19'3 1.4 1023.4 22.9
2017-Sep-16 20:00N 33°34' W 138°16'1 1.2 1024.2 22.6
2017-Sep-16 19:00N 33°34' W 138°15'1 0.6 1024.4 22.6
2017-Sep-16 18:00N 33°35' W 138°15'1 0.8 1024.2 22.5
2017-Sep-16 17:00N 33°35' W 138°14'0 0.0 1023.9 22.5
2017-Sep-16 16:00N 33°35' W 138°14'0 0.0 1023.7 22.5
2017-Sep-16 15:00N 33°35' W 138°14'1 1.3 1023.3 22.5
2017-Sep-16 14:00N 33°37' W 138°14'1 1.0 1022.8 22.5
2017-Sep-16 13:00N 33°37' W 138°15'1 1.2 1022.7 22.6
2017-Sep-16 12:00N 33°37' W 138°14'0 0.0 1022.7 22.6
2017-Sep-16 07:00N 33°37' W 138°14'1 0.8 1023.5 22.6
2017-Sep-16 06:00N 33°38' W 138°13'0 0.0 1023.5 22.6
2017-Sep-16 05:00N 33°38' W 138°13'2 1.6 1023.3 22.7
2017-Sep-16 04:00N 33°39' W 138°12'0 0.0 1022.7 22.7
2017-Sep-16 03:00N 33°39' W 138°12'1 0.8 1022.7 22.8
2017-Sep-16 02:00N 33°40' W 138°11'0 0.0 1022.7 22.8
2017-Sep-16 01:00N 33°40' W 138°11'1 1.2 1022.7 22.9
2017-Sep-16 00:00N 33°41' W 138°11'0 0.0 1023.0 22.8
2017-Sep-15 23:00N 33°41' W 138°11'0 0.0 1023.2 22.9
2017-Sep-15 22:00N 33°41' W 138°11'1 0.6 1023.7 22.8
2017-Sep-15 20:00N 33°42' W 138°12'0 0.0 1024.3 22.7
2017-Sep-15 19:00N 33°42' W 138°12'1 1.2 1024.4 22.6
2017-Sep-15 18:00N 33°43' W 138°13'0 0.0 1024.1 22.6
2017-Sep-15 17:00N 33°43' W 138°13'0 0.2 1023.6 22.6
2017-Sep-15 15:00N 33°43' W 138°14'0 0.0 1023.1 22.6
2017-Sep-15 14:00N 33°43' W 138°14'0 0.0 1022.8 22.6
2017-Sep-15 13:00N 33°43' W 138°14'0 0.5 1022.6 22.6
2017-Sep-15 12:00N 33°43' W 138°14'0 0.0 1022.6 22.6
2017-Sep-15 11:00N 33°43' W 138°14'1 0.2 1022.9 22.6
2017-Sep-15 07:00N 33°42' W 138°14'0 0.5 1023.1 22.6
2017-Sep-15 06:00N 33°42' W 138°13'0 0.0 1023.0 22.6
2017-Sep-15 05:00N 33°42' W 138°13'0 0.5 1022.7 22.6
2017-Sep-15 04:00N 33°42' W 138°13'0 0.0 1022.1 22.6
2017-Sep-15 03:00N 33°42' W 138°13'0 0.5 1021.7 22.7
2017-Sep-15 02:00N 33°42' W 138°12'0 0.5 1021.5 22.7
2017-Sep-15 01:00N 33°42' W 138°11'1 1.2 1021.4 22.7
2017-Sep-15 00:00N 33°43' W 138°10'0 0.0 1021.4 22.7
2017-Sep-14 23:00N 33°43' W 138°10'0 0.0 1021.5 22.7
2017-Sep-14 22:00N 33°43' W 138°10'2 1.0 1021.9 22.6
2017-Sep-14 20:00N 33°44' W 138°09'1 0.6 1022.6 22.6
2017-Sep-14 19:00N 33°45' W 138°09'0 0.0 1022.6 22.6
2017-Sep-14 18:00N 33°45' W 138°09'1 1.2 1022.3 22.5
2017-Sep-14 17:00N 33°46' W 138°10'0 0.0 1022.0 22.5
2017-Sep-14 16:00N 33°46' W 138°10'1 1.0 1022.0 22.5
2017-Sep-14 15:00N 33°46' W 138°09'0 0.5 1021.4 22.6
2017-Sep-14 14:00N 33°46' W 138°10'0 0.5 1020.9 22.6
2017-Sep-14 13:00N 33°46' W 138°09'0 0.0 1020.6 22.6
2017-Sep-14 12:00N 33°46' W 138°09'1 0.8 1020.7 22.6
2017-Sep-14 11:00N 33°46' W 138°10'3 0.8 1020.8 22.6
2017-Sep-14 07:00N 33°46' W 138°06'0 0.0 1021.5 22.6
2017-Sep-14 06:00N 33°46' W 138°06'1 1.2 1021.4 22.6
2017-Sep-14 05:00N 33°46' W 138°05'0 0.0 1020.9 22.6
2017-Sep-14 04:00N 33°46' W 138°05'1 0.8 1020.2 22.6
2017-Sep-14 03:00N 33°47' W 138°04'1 1.2 1019.9 22.6
2017-Sep-14 02:00N 33°47' W 138°03'0 0.0 1019.8 22.7
2017-Sep-14 01:00N 33°47' W 138°03'1 1.3 1019.7 22.7
2017-Sep-14 00:00N 33°49' W 138°02'0 0.0 1020.2 22.6
2017-Sep-13 23:00N 33°49' W 138°02'2 0.6 1020.3 22.6
2017-Sep-13 20:00N 33°50' W 138°03'0 0.2 1021.6 22.6
2017-Sep-13 18:00N 33°50' W 138°02'0 0.0 1021.8 22.6
2017-Sep-13 17:00N 33°50' W 138°02'0 0.0 1021.5 22.6
2017-Sep-13 16:00N 33°50' W 138°02'0 0.5 1021.3 22.5
2017-Sep-13 15:00N 33°50' W 138°02'   1020.9 22.6
Track history (hours):
 
Tides and Currents Weather Stations Pressure Air Temp Water Temp Dewpoint Dewpoint Depression Visibility Wind Speed Wind Dir Waves Ship Positions

Drifting buoy 22628

Last reported at 2017-Sep-23 15:00 UTC. Time now 2017-Sep-23 16:28 UTC.
Position N 33°47' W 139°23'.

Barometer 1023.8 mb
Water temperature 22.9 ° C

Date/timePositionNaut miles runAvg speedWind from/ knotsBaromVisibWave heightAir tempDewpointWater temp
2017-Sep-23 15:00N 33°47' W 139°23'0 0.0 1023.8 22.9
2017-Sep-23 14:00N 33°47' W 139°23'1 0.6 1023.5 22.9
2017-Sep-23 13:00N 33°47' W 139°23'3 3.2 1023.2 22.9
2017-Sep-23 12:00N 33°44' W 139°22'0 0.0 1023.1 22.8
2017-Sep-23 11:00N 33°44' W 139°22'0 0.0 1023.4 22.8
2017-Sep-23 07:00N 33°44' W 139°22'1 0.6 1024.5 22.8
2017-Sep-23 06:00N 33°44' W 139°22'0 0.5 1024.4 22.8
2017-Sep-23 05:00N 33°44' W 139°21'0 0.0 1023.9 22.8
2017-Sep-23 04:00N 33°44' W 139°21'1 1.3 1023.7 22.8
2017-Sep-23 03:00N 33°43' W 139°20'0 0.5 1023.6 22.8
2017-Sep-23 02:00N 33°43' W 139°20'0 0.5 1023.7 22.8
2017-Sep-23 01:00N 33°43' W 139°20'1 0.8 1023.7 22.8
2017-Sep-23 00:00N 33°42' W 139°20'0 0.0 1024.1 22.8
2017-Sep-22 23:00N 33°42' W 139°20'2 0.6 1024.6 22.8
2017-Sep-22 20:00N 33°41' W 139°18'1 1.2 1026.0 22.7
2017-Sep-22 19:00N 33°40' W 139°17'0 0.0 1026.1 22.8
2017-Sep-22 18:00N 33°40' W 139°17'1 0.6 1025.9 22.8
2017-Sep-22 17:00N 33°40' W 139°17'1 1.0 1025.4 22.8
2017-Sep-22 16:00N 33°40' W 139°16'0 0.0 1025.3 22.8
2017-Sep-22 15:00N 33°40' W 139°16'1 1.0 1025.1 22.8
2017-Sep-22 14:00N 33°40' W 139°14'0 0.5 1025.0 22.8
2017-Sep-22 13:00N 33°40' W 139°14'1 0.6 1024.8 22.7
2017-Sep-22 12:00N 33°40' W 139°14'1 1.0 1024.9 22.7
2017-Sep-22 11:00N 33°40' W 139°13'0 0.1 1025.4 22.7
2017-Sep-22 07:00N 33°40' W 139°12'0 0.0 1026.0 22.7
2017-Sep-22 06:00N 33°40' W 139°12'1 0.6 1026.2 22.8
2017-Sep-22 05:00N 33°40' W 139°12'1 0.8 1025.9 22.8
2017-Sep-22 04:00N 33°39' W 139°11'1 0.6 1025.5 22.8
2017-Sep-22 03:00N 33°38' W 139°11'0 0.5 1025.1 22.8
2017-Sep-22 02:00N 33°38' W 139°11'1 0.6 1025.0 22.8
2017-Sep-22 01:00N 33°38' W 139°11'1 1.2 1025.0 22.8
2017-Sep-22 00:00N 33°37' W 139°10'0 0.0 1025.3 22.8
2017-Sep-21 23:00N 33°37' W 139°10'3 1.0 1025.5 22.8
2017-Sep-21 20:00N 33°37' W 139°06'1 1.0 1025.9 22.8
2017-Sep-21 19:00N 33°37' W 139°05'1 1.0 1025.9 22.8
2017-Sep-21 18:00N 33°37' W 139°04'0 0.5 1025.6 22.8
2017-Sep-21 17:00N 33°37' W 139°03'0 0.0 1025.1 22.8
2017-Sep-21 16:00N 33°37' W 139°03'1 1.0 1024.6 22.8
2017-Sep-21 15:00N 33°37' W 139°02'0 0.0 1023.9 22.8
2017-Sep-21 14:00N 33°37' W 139°02'1 0.6 1023.7 22.8
2017-Sep-21 13:00N 33°37' W 139°02'0 0.0 1023.4 22.8
2017-Sep-21 12:00N 33°37' W 139°02'1 1.0 1023.5 22.8
2017-Sep-21 11:00N 33°37' W 139°01'0 0.1 1024.1 22.8
2017-Sep-21 07:00N 33°37' W 139°00'0 0.0 1024.8 22.8
2017-Sep-21 06:00N 33°37' W 139°00'0 0.0 1024.7 22.8
2017-Sep-21 05:00N 33°37' W 139°00'0 0.0 1024.4 22.8
2017-Sep-21 04:00N 33°37' W 139°00'1 0.6 1023.9 22.9
2017-Sep-21 03:00N 33°38' W 139°00'0 0.5 1023.6 22.9
2017-Sep-21 02:00N 33°38' W 138°59'0 0.0 1023.4 22.9
2017-Sep-21 01:00N 33°38' W 138°59'1 0.6
2017-Sep-21 00:00N 33°38' W 138°59'1 0.6 1023.7 22.9
2017-Sep-20 23:00N 33°38' W 138°59'1 0.4 1024.2 22.9
2017-Sep-20 20:00N 33°38' W 138°58'1 1.0 1025.6 22.8
2017-Sep-20 19:00N 33°38' W 138°57'0 0.5 1026.1 22.8
2017-Sep-20 18:00N 33°38' W 138°56'0 0.0 1025.8 22.8
2017-Sep-20 17:00N 33°38' W 138°56'0 0.0 1025.7 22.8
2017-Sep-20 16:00N 33°38' W 138°56'1 1.2 1025.6 22.8
2017-Sep-20 15:00N 33°40' W 138°56'0 0.5 1025.5 22.8
2017-Sep-20 14:00N 33°40' W 138°56'0 0.0 1025.3 22.8
2017-Sep-20 13:00N 33°40' W 138°56'0 0.0 1025.5 22.8
2017-Sep-20 12:00N 33°40' W 138°56'1 0.8 1025.7 22.8
2017-Sep-20 11:00N 33°40' W 138°55'1 0.1 1026.0 22.8
2017-Sep-20 07:00N 33°41' W 138°55'0 0.0 1027.0 22.9
2017-Sep-20 06:00N 33°41' W 138°55'0 0.0 1027.0 22.9
2017-Sep-20 05:00N 33°41' W 138°55'1 0.6 1026.8 22.9
2017-Sep-20 04:00N 33°40' W 138°55'0 0.5 1026.1 22.8
2017-Sep-20 03:00N 33°40' W 138°55'0 0.5 1025.8 22.8
2017-Sep-20 02:00N 33°40' W 138°54'0 0.0 1025.9 22.9
2017-Sep-20 01:00N 33°40' W 138°54'1 0.6 1025.9 22.8
2017-Sep-20 00:00N 33°40' W 138°54'0 0.0 1025.9 22.8
2017-Sep-19 23:00N 33°40' W 138°54'3 1.3 1026.2 22.8
2017-Sep-19 21:00N 33°39' W 138°51'1 0.8 1026.9 22.8
2017-Sep-19 20:00N 33°38' W 138°50'0 0.0 1027.2 22.7
2017-Sep-19 19:00N 33°38' W 138°50'2 1.0 1027.2 22.6
2017-Sep-19 17:00N 33°38' W 138°48'1 0.8 1027.0 22.6
2017-Sep-19 16:00N 33°39' W 138°47'0 0.0 1026.8 22.6
2017-Sep-19 15:00N 33°39' W 138°47'1 1.2 1026.5 22.6
2017-Sep-19 14:00N 33°40' W 138°46'1 0.6 1026.1 22.6
2017-Sep-19 13:00N 33°40' W 138°46'0 0.0 1025.9 22.6
2017-Sep-19 12:00N 33°40' W 138°46'0 0.5 1025.8 22.6
2017-Sep-19 11:00N 33°40' W 138°46'1 0.2 1026.0 22.7
2017-Sep-19 07:00N 33°40' W 138°45'1 1.0 1026.2 22.7
2017-Sep-19 06:00N 33°40' W 138°44'0 0.0 1026.0 22.7
2017-Sep-19 05:00N 33°40' W 138°44'0 0.5 1025.5 22.7
2017-Sep-19 04:00N 33°40' W 138°43'1 1.2 1025.0 22.7
2017-Sep-19 03:00N 33°39' W 138°42'0 0.5 1024.7 22.7
2017-Sep-19 02:00N 33°39' W 138°41'3 3.0 1024.5 22.7
2017-Sep-19 01:00N 33°39' W 138°38'1 1.3 1024.4 22.7
2017-Sep-19 00:00N 33°38' W 138°37'0 0.0 1024.5 22.7
2017-Sep-18 23:00N 33°38' W 138°37'0 0.0 1024.4 22.7
2017-Sep-18 22:00N 33°38' W 138°37'2 1.2 1024.4 22.8
2017-Sep-18 20:00N 33°38' W 138°34'2 0.8 1024.5 22.7
2017-Sep-18 18:00N 33°38' W 138°32'1 1.2 1024.2 22.8
2017-Sep-18 17:00N 33°39' W 138°31'2 1.6 1023.7 22.8
2017-Sep-18 16:00N 33°40' W 138°30'0 0.0 1023.3 22.9
2017-Sep-18 15:00N 33°40' W 138°30'1 0.6 1022.8 22.9
2017-Sep-18 14:00N 33°40' W 138°30'1 0.8 1022.4 22.8
2017-Sep-18 13:00N 33°40' W 138°31'0 0.5 1022.2 22.8
2017-Sep-18 12:00N 33°40' W 138°31'1 0.2 1022.3 22.8
2017-Sep-18 07:00N 33°40' W 138°32'1 1.2 1023.6 23.2
2017-Sep-18 06:00N 33°39' W 138°32'0 0.0 1023.5 23.4
2017-Sep-18 05:00N 33°39' W 138°32'1 1.2 1023.3 23.6
2017-Sep-18 04:00N 33°38' W 138°32'0 0.0 1022.7 23.6
2017-Sep-18 03:00N 33°38' W 138°32'1 0.8 1022.6 24.1
2017-Sep-18 02:00N 33°37' W 138°32'1 1.0 1022.8 24.5
2017-Sep-18 01:00N 33°37' W 138°31'0 0.0 1022.9 25.0
2017-Sep-18 00:00N 33°37' W 138°31'1 0.4 1023.0 24.5
2017-Sep-17 22:00N 33°37' W 138°30'1 0.5 1023.7 24.3
2017-Sep-17 20:00N 33°37' W 138°29'0 0.5 1024.6 24.0
2017-Sep-17 19:00N 33°37' W 138°28'0 0.0 1024.6 22.9
2017-Sep-17 18:00N 33°37' W 138°28'0 0.0 1024.4 22.7
2017-Sep-17 17:00N 33°37' W 138°28'1 1.0 1024.1 22.6
2017-Sep-17 16:00N 33°37' W 138°27'0 0.0 1023.9 22.6
2017-Sep-17 15:00N 33°37' W 138°27'1 0.6 1023.7 22.6
2017-Sep-17 14:00N 33°36' W 138°27'1 1.2 1023.3 22.6
2017-Sep-17 13:00N 33°37' W 138°27'3 3.2 1023.0 22.6
2017-Sep-17 12:00N 33°34' W 138°26'0 0.1 1022.7 22.6
2017-Sep-17 06:00N 33°34' W 138°25'2 1.6 1023.3 22.8
2017-Sep-17 05:00N 33°34' W 138°23'0 0.0 1023.1 22.8
2017-Sep-17 04:00N 33°34' W 138°23'2 1.6 1022.5 22.9
2017-Sep-17 03:00N 33°33' W 138°22'1 1.0 1022.4 22.9
2017-Sep-17 02:00N 33°33' W 138°20'0 0.0 1022.4 23.0
2017-Sep-17 01:00N 33°33' W 138°20'0 0.0 1022.5 23.0
2017-Sep-17 00:00N 33°33' W 138°20'1 0.6 1022.5 23.0
2017-Sep-16 22:00N 33°32' W 138°19'3 1.4 1023.4 22.9
2017-Sep-16 20:00N 33°34' W 138°16'1 1.2 1024.2 22.6
2017-Sep-16 19:00N 33°34' W 138°15'1 0.6 1024.4 22.6
2017-Sep-16 18:00N 33°35' W 138°15'1 0.8 1024.2 22.5
2017-Sep-16 17:00N 33°35' W 138°14'0 0.0 1023.9 22.5
2017-Sep-16 16:00N 33°35' W 138°14'0 0.0 1023.7 22.5
2017-Sep-16 15:00N 33°35' W 138°14'1 1.3 1023.3 22.5
2017-Sep-16 14:00N 33°37' W 138°14'1 1.0 1022.8 22.5
2017-Sep-16 13:00N 33°37' W 138°15'1 1.2 1022.7 22.6
2017-Sep-16 12:00N 33°37' W 138°14'0 0.0 1022.7 22.6
2017-Sep-16 07:00N 33°37' W 138°14'1 0.8 1023.5 22.6
2017-Sep-16 06:00N 33°38' W 138°13'0 0.0 1023.5 22.6
2017-Sep-16 05:00N 33°38' W 138°13'2 1.6 1023.3 22.7
2017-Sep-16 04:00N 33°39' W 138°12'0 0.0 1022.7 22.7
2017-Sep-16 03:00N 33°39' W 138°12'1 0.8 1022.7 22.8
2017-Sep-16 02:00N 33°40' W 138°11'0 0.0 1022.7 22.8
2017-Sep-16 01:00N 33°40' W 138°11'1 1.2 1022.7 22.9
2017-Sep-16 00:00N 33°41' W 138°11'0 0.0 1023.0 22.8
2017-Sep-15 23:00N 33°41' W 138°11'0 0.0 1023.2 22.9
2017-Sep-15 22:00N 33°41' W 138°11'1 0.6 1023.7 22.8
2017-Sep-15 20:00N 33°42' W 138°12'0 0.0 1024.3 22.7
2017-Sep-15 19:00N 33°42' W 138°12'1 1.2 1024.4 22.6
2017-Sep-15 18:00N 33°43' W 138°13'0 0.0 1024.1 22.6
2017-Sep-15 17:00N 33°43' W 138°13'0 0.2 1023.6 22.6
2017-Sep-15 15:00N 33°43' W 138°14'0 0.0 1023.1 22.6
2017-Sep-15 14:00N 33°43' W 138°14'0 0.0 1022.8 22.6
2017-Sep-15 13:00N 33°43' W 138°14'0 0.5 1022.6 22.6
2017-Sep-15 12:00N 33°43' W 138°14'0 0.0 1022.6 22.6
2017-Sep-15 11:00N 33°43' W 138°14'1 0.2 1022.9 22.6
2017-Sep-15 07:00N 33°42' W 138°14'0 0.5 1023.1 22.6
2017-Sep-15 06:00N 33°42' W 138°13'0 0.0 1023.0 22.6
2017-Sep-15 05:00N 33°42' W 138°13'0 0.5 1022.7 22.6
2017-Sep-15 04:00N 33°42' W 138°13'0 0.0 1022.1 22.6
2017-Sep-15 03:00N 33°42' W 138°13'0 0.5 1021.7 22.7
2017-Sep-15 02:00N 33°42' W 138°12'0 0.5 1021.5 22.7
2017-Sep-15 01:00N 33°42' W 138°11'1 1.2 1021.4 22.7
2017-Sep-15 00:00N 33°43' W 138°10'0 0.0 1021.4 22.7
2017-Sep-14 23:00N 33°43' W 138°10'0 0.0 1021.5 22.7
2017-Sep-14 22:00N 33°43' W 138°10'2 1.0 1021.9 22.6
2017-Sep-14 20:00N 33°44' W 138°09'1 0.6 1022.6 22.6
2017-Sep-14 19:00N 33°45' W 138°09'0 0.0 1022.6 22.6
2017-Sep-14 18:00N 33°45' W 138°09'1 1.2 1022.3 22.5
2017-Sep-14 17:00N 33°46' W 138°10'0 0.0 1022.0 22.5
2017-Sep-14 16:00N 33°46' W 138°10'1 1.0 1022.0 22.5
2017-Sep-14 15:00N 33°46' W 138°09'0 0.5 1021.4 22.6
2017-Sep-14 14:00N 33°46' W 138°10'0 0.5 1020.9 22.6
2017-Sep-14 13:00N 33°46' W 138°09'0 0.0 1020.6 22.6
2017-Sep-14 12:00N 33°46' W 138°09'1 0.8 1020.7 22.6
2017-Sep-14 11:00N 33°46' W 138°10'3 0.8 1020.8 22.6
2017-Sep-14 07:00N 33°46' W 138°06'0 0.0 1021.5 22.6
2017-Sep-14 06:00N 33°46' W 138°06'1 1.2 1021.4 22.6
2017-Sep-14 05:00N 33°46' W 138°05'0 0.0 1020.9 22.6
2017-Sep-14 04:00N 33°46' W 138°05'1 0.8 1020.2 22.6
2017-Sep-14 03:00N 33°47' W 138°04'1 1.2 1019.9 22.6
2017-Sep-14 02:00N 33°47' W 138°03'0 0.0 1019.8 22.7
2017-Sep-14 01:00N 33°47' W 138°03'1 1.3 1019.7 22.7
2017-Sep-14 00:00N 33°49' W 138°02'0 0.0 1020.2 22.6
2017-Sep-13 23:00N 33°49' W 138°02'2 0.6 1020.3 22.6
2017-Sep-13 20:00N 33°50' W 138°03'0 0.2 1021.6 22.6
2017-Sep-13 18:00N 33°50' W 138°02'0 0.0 1021.8 22.6
2017-Sep-13 17:00N 33°50' W 138°02'0 0.0 1021.5 22.6
2017-Sep-13 16:00N 33°50' W 138°02'0 0.5 1021.3 22.5
2017-Sep-13 15:00N 33°50' W 138°02'   1020.9 22.6

Dump ship's entire track history